Аэропорт: Владикавказ (Беслан). Владикавказ

ICAO: URMO

METAR:
2021-10-23 01:30:00
URMO 230130Z AUTO 14001MPS 9999 2500E BR ///////// 02/00 Q1021 RMK QFE722/0963
METAR:
Информация по данной станции не доступна